createdAt,value
2022-09-04T00:00:29.001Z,3.20
2022-09-04T00:03:49.103Z,2.62
2022-09-04T00:06:59.771Z,3.10
2022-09-04T00:10:42.072Z,2.98
2022-09-04T00:13:56.218Z,2.83
2022-09-04T00:17:08.933Z,2.80
2022-09-04T00:20:18.984Z,2.85
2022-09-04T00:23:41.339Z,2.92
2022-09-04T00:27:14.328Z,2.85
2022-09-04T00:30:26.467Z,3.37
2022-09-04T00:33:51.539Z,3.00
2022-09-04T00:37:01.389Z,3.02
2022-09-04T00:40:20.453Z,2.75
2022-09-04T00:43:56.522Z,3.00
2022-09-04T00:47:23.578Z,2.95
2022-09-04T00:50:40.081Z,3.50
2022-09-04T00:54:21.876Z,3.62
2022-09-04T00:58:14.315Z,2.75
2022-09-04T01:01:20.373Z,2.77
2022-09-04T01:04:38.833Z,3.40
2022-09-04T01:07:56.470Z,3.10
2022-09-04T01:11:42.899Z,2.85
2022-09-04T01:15:03.881Z,2.95
2022-09-04T01:18:51.928Z,3.20
2022-09-04T01:22:38.124Z,3.05
2022-09-04T01:26:25.882Z,2.77
2022-09-04T01:29:54.771Z,2.77
2022-09-04T01:33:40.866Z,2.90
2022-09-04T01:36:55.439Z,2.77
2022-09-04T01:40:07.628Z,2.55
2022-09-04T01:43:29.259Z,2.70
2022-09-04T01:46:56.632Z,2.95
2022-09-04T01:50:12.309Z,3.08
2022-09-04T01:53:33.715Z,2.98
2022-09-04T01:56:54.007Z,3.00
2022-09-04T02:00:10.631Z,3.20
2022-09-04T02:03:34.913Z,2.75
2022-09-04T02:07:04.109Z,2.55
2022-09-04T02:10:19.397Z,3.05
2022-09-04T02:14:02.739Z,2.62
2022-09-04T02:17:38.797Z,3.27
2022-09-04T02:20:46.530Z,2.83
2022-09-04T02:24:07.406Z,3.12
2022-09-04T02:27:32.205Z,2.80
2022-09-04T02:30:38.574Z,2.90
2022-09-04T02:34:10.235Z,3.65
2022-09-04T02:37:42.704Z,2.85
2022-09-04T02:41:14.390Z,2.80
2022-09-04T02:44:43.789Z,3.23
2022-09-04T02:48:02.745Z,3.15
2022-09-04T02:52:00.570Z,3.05
2022-09-04T02:55:31.051Z,3.22
2022-09-04T02:58:54.015Z,3.02
2022-09-04T03:05:40.965Z,3.02
2022-09-04T03:09:01.051Z,2.80
2022-09-04T03:12:42.324Z,3.20
2022-09-04T03:16:13.822Z,3.27
2022-09-04T03:19:30.077Z,2.83
2022-09-04T03:22:46.895Z,3.47
2022-09-04T03:26:28.282Z,3.25
2022-09-04T03:29:47.966Z,2.95
2022-09-04T03:33:06.191Z,3.00
2022-09-04T03:36:26.296Z,3.02
2022-09-04T03:39:55.867Z,2.75
2022-09-04T03:43:32.673Z,3.45
2022-09-04T03:46:43.121Z,3.10
2022-09-04T03:50:24.154Z,3.33
2022-09-04T03:53:57.727Z,3.08
2022-09-04T03:57:29.453Z,2.83
2022-09-04T04:00:36.351Z,2.85
2022-09-04T04:04:39.333Z,3.20
2022-09-04T04:08:17.031Z,3.42
2022-09-04T04:11:43.271Z,3.47
2022-09-04T04:15:00.639Z,3.30
2022-09-04T04:18:38.647Z,3.40
2022-09-04T04:22:23.943Z,3.58
2022-09-04T04:25:52.386Z,3.33
2022-09-04T04:29:20.783Z,3.35
2022-09-04T04:32:47.513Z,3.77
2022-09-04T04:36:08.300Z,3.72
2022-09-04T04:39:32.135Z,3.45
2022-09-04T04:43:05.902Z,3.52
2022-09-04T04:46:34.305Z,7.17
2022-09-04T04:50:14.821Z,3.67
2022-09-04T04:53:52.020Z,3.67
2022-09-04T04:57:20.795Z,3.72
2022-09-04T05:00:34.315Z,4.08
2022-09-04T05:04:00.874Z,3.95
2022-09-04T05:07:11.834Z,3.75
2022-09-04T05:10:47.751Z,3.60
2022-09-04T05:14:21.514Z,4.30
2022-09-04T05:18:11.814Z,3.87
2022-09-04T05:21:30.161Z,4.22
2022-09-04T05:24:47.091Z,3.90
2022-09-04T05:28:23.361Z,4.58
2022-09-04T05:31:55.223Z,4.78
2022-09-04T05:35:37.097Z,4.70
2022-09-04T05:39:30.910Z,3.40
2022-09-04T05:42:57.618Z,3.40
2022-09-04T05:46:22.418Z,3.50
2022-09-04T05:49:38.275Z,3.22
2022-09-04T05:53:24.526Z,2.83
2022-09-04T05:57:18.607Z,3.25
2022-09-04T06:00:30.218Z,3.45
2022-09-04T06:04:05.338Z,2.83
2022-09-04T06:07:37.783Z,2.15
2022-09-04T06:11:12.792Z,1.85
2022-09-04T06:14:44.703Z,2.25
2022-09-04T06:17:58.383Z,2.10
2022-09-04T06:21:24.620Z,1.77
2022-09-04T06:24:56.983Z,1.77
2022-09-04T06:28:36.852Z,1.40
2022-09-04T06:32:03.999Z,2.20
2022-09-04T06:35:30.116Z,2.08
2022-09-04T06:39:05.354Z,1.62
2022-09-04T06:42:41.325Z,1.40
2022-09-04T06:46:05.367Z,1.60
2022-09-04T06:49:42.998Z,1.82
2022-09-04T06:53:14.697Z,1.25
2022-09-04T06:56:51.336Z,1.17
2022-09-04T07:00:25.386Z,1.12
2022-09-04T07:03:59.867Z,1.22
2022-09-04T07:07:27.964Z,1.40
2022-09-04T07:10:41.672Z,1.15
2022-09-04T07:14:20.647Z,1.45
2022-09-04T07:17:58.453Z,1.10
2022-09-04T07:21:14.953Z,1.20
2022-09-04T07:24:45.037Z,0.80
2022-09-04T07:28:22.564Z,1.30
2022-09-04T07:31:59.660Z,1.15
2022-09-04T07:35:35.030Z,1.75
2022-09-04T07:38:57.081Z,1.40
2022-09-04T07:42:07.158Z,1.55
2022-09-04T07:45:38.013Z,1.40
2022-09-04T07:49:00.488Z,1.32
2022-09-04T07:52:47.064Z,1.30
2022-09-04T07:56:14.749Z,1.22
2022-09-04T07:59:52.902Z,1.25
2022-09-04T08:03:34.913Z,1.35
2022-09-04T08:06:53.126Z,1.10
2022-09-04T08:10:22.658Z,1.10
2022-09-04T08:13:52.357Z,0.93
2022-09-04T08:17:10.707Z,1.10
2022-09-04T08:20:35.630Z,1.20
2022-09-04T08:24:05.440Z,1.20
2022-09-04T08:27:44.176Z,0.90
2022-09-04T08:31:06.023Z,0.80
2022-09-04T08:34:51.875Z,1.02
2022-09-04T08:38:48.950Z,1.00
2022-09-04T08:42:27.745Z,0.90
2022-09-04T08:45:50.449Z,1.10
2022-09-04T08:49:40.801Z,0.98
2022-09-04T08:57:10.241Z,1.42
2022-09-04T09:00:56.905Z,1.10
2022-09-04T09:04:32.938Z,1.20
2022-09-04T09:08:12.271Z,1.07
2022-09-04T09:11:45.759Z,1.12
2022-09-04T09:15:21.950Z,1.02
2022-09-04T09:18:55.950Z,0.90
2022-09-04T09:22:09.009Z,0.93
2022-09-04T09:25:34.673Z,1.10
2022-09-04T09:29:17.052Z,1.20
2022-09-04T09:33:02.712Z,0.98
2022-09-04T09:36:24.940Z,1.20
2022-09-04T09:39:48.452Z,1.35
2022-09-04T09:43:26.209Z,1.10
2022-09-04T09:47:11.915Z,1.20
2022-09-04T09:50:40.612Z,1.10
2022-09-04T09:54:24.161Z,1.00
2022-09-04T09:57:53.244Z,1.25
2022-09-04T10:01:23.838Z,1.62
2022-09-04T10:05:06.813Z,1.40
2022-09-04T10:08:48.647Z,1.80
2022-09-04T10:12:00.599Z,1.30
2022-09-04T10:15:49.992Z,1.40
2022-09-04T10:19:53.210Z,1.27
2022-09-04T10:23:41.025Z,1.40
2022-09-04T10:27:03.371Z,1.42
2022-09-04T10:30:26.028Z,1.40
2022-09-04T10:33:43.781Z,1.30
2022-09-04T10:37:24.250Z,1.30
2022-09-04T10:40:51.302Z,1.70
2022-09-04T10:44:44.339Z,2.05
2022-09-04T10:48:09.019Z,1.62
2022-09-04T10:51:26.240Z,1.55
2022-09-04T10:55:19.719Z,1.55
2022-09-04T10:58:36.901Z,1.72
2022-09-04T11:02:13.068Z,1.17
2022-09-04T11:08:51.809Z,1.80
2022-09-04T11:12:28.963Z,1.77
2022-09-04T11:16:03.215Z,1.60
2022-09-04T11:19:47.851Z,1.60
2022-09-04T11:23:22.537Z,2.02
2022-09-04T11:27:08.058Z,1.62
2022-09-04T11:30:26.092Z,2.05
2022-09-04T11:34:03.263Z,1.67
2022-09-04T11:37:30.587Z,1.85
2022-09-04T11:41:03.186Z,1.72
2022-09-04T11:44:37.546Z,1.72
2022-09-04T11:48:15.113Z,1.85
2022-09-04T11:51:54.802Z,1.55
2022-09-04T11:55:44.245Z,1.52
2022-09-04T11:59:30.393Z,1.60
2022-09-04T12:02:55.797Z,1.70
2022-09-04T12:06:43.362Z,2.67
2022-09-04T12:10:21.948Z,2.00
2022-09-04T12:14:16.526Z,1.70
2022-09-04T12:17:42.879Z,2.17
2022-09-04T12:21:12.931Z,1.70
2022-09-04T12:24:32.181Z,1.67
2022-09-04T12:27:56.971Z,1.50
2022-09-04T12:31:40.290Z,1.50
2022-09-04T12:35:07.074Z,1.50
2022-09-04T12:38:58.693Z,1.77
2022-09-04T12:42:45.741Z,1.50
2022-09-04T12:46:24.130Z,1.67
2022-09-04T12:50:15.358Z,1.72
2022-09-04T12:54:06.942Z,1.70
2022-09-04T12:57:32.389Z,1.80
2022-09-04T13:00:47.203Z,1.57
2022-09-04T13:03:56.213Z,3.00
2022-09-04T13:07:16.604Z,1.85
2022-09-04T13:10:45.182Z,1.70
2022-09-04T13:14:05.620Z,1.70
2022-09-04T13:17:25.457Z,1.80
2022-09-04T13:20:50.985Z,1.52
2022-09-04T13:24:18.584Z,1.65
2022-09-04T13:27:51.751Z,2.22
2022-09-04T13:31:05.942Z,2.60
2022-09-04T13:34:19.961Z,1.82
2022-09-04T13:37:52.625Z,1.62
2022-09-04T13:41:39.244Z,1.70
2022-09-04T13:45:16.535Z,1.92
2022-09-04T13:48:44.411Z,1.70
2022-09-04T13:52:03.032Z,1.55
2022-09-04T13:55:18.356Z,1.87
2022-09-04T13:58:49.306Z,2.02
2022-09-04T14:01:58.773Z,1.80
2022-09-04T14:05:03.848Z,1.98
2022-09-04T14:08:20.669Z,1.57
2022-09-04T14:11:55.317Z,1.77
2022-09-04T14:15:24.109Z,2.05
2022-09-04T14:19:10.806Z,1.60
2022-09-04T14:22:16.724Z,1.82
2022-09-04T14:25:33.422Z,1.90
2022-09-04T14:29:21.853Z,1.87
2022-09-04T14:33:00.831Z,1.77
2022-09-04T14:36:37.577Z,1.57
2022-09-04T14:40:16.188Z,1.72
2022-09-04T14:44:03.679Z,1.57
2022-09-04T14:47:57.291Z,1.72
2022-09-04T14:51:08.393Z,1.98
2022-09-04T14:54:16.389Z,1.70
2022-09-04T14:57:50.699Z,2.08
2022-09-04T15:01:21.649Z,2.27
2022-09-04T15:04:34.399Z,2.10
2022-09-04T15:08:08.930Z,1.90
2022-09-04T15:11:29.283Z,2.17
2022-09-04T15:14:47.335Z,1.87
2022-09-04T15:17:58.116Z,1.72
2022-09-04T15:21:21.363Z,1.75
2022-09-04T15:25:02.244Z,1.60
2022-09-04T15:28:26.935Z,1.90
2022-09-04T15:31:49.060Z,1.52
2022-09-04T15:34:58.004Z,1.90
2022-09-04T15:38:23.480Z,1.90
2022-09-04T15:41:57.675Z,1.90
2022-09-04T15:45:05.882Z,2.15
2022-09-04T15:48:41.775Z,2.10
2022-09-04T15:52:10.097Z,2.25
2022-09-04T15:55:44.126Z,3.75
2022-09-04T15:59:09.304Z,3.20
2022-09-04T16:02:25.829Z,2.55
2022-09-04T16:05:59.622Z,2.05
2022-09-04T16:09:21.699Z,1.95
2022-09-04T16:12:30.795Z,1.92
2022-09-04T16:15:55.817Z,2.10
2022-09-04T16:19:31.167Z,2.42
2022-09-04T16:23:12.821Z,2.25
2022-09-04T16:26:32.848Z,8.00
2022-09-04T16:29:51.567Z,8.58
2022-09-04T16:32:57.257Z,9.05
2022-09-04T16:36:04.114Z,7.05
2022-09-04T16:39:46.093Z,6.05
2022-09-04T16:43:04.247Z,9.20
2022-09-04T16:46:43.661Z,8.83
2022-09-04T16:50:20.497Z,9.20
2022-09-04T16:53:35.475Z,8.05
2022-09-04T16:57:12.087Z,7.80
2022-09-04T17:00:15.243Z,8.48
2022-09-04T17:03:35.426Z,8.55
2022-09-04T17:07:00.031Z,13.78
2022-09-04T17:10:37.230Z,14.55
2022-09-04T17:13:50.394Z,11.70
2022-09-04T17:17:30.195Z,11.70
2022-09-04T17:20:41.963Z,11.73
2022-09-04T17:29:02.864Z,14.20
2022-09-04T17:29:12.860Z,15.93
2022-09-04T17:30:28.883Z,15.25
2022-09-04T17:39:30.269Z,16.35
2022-09-04T17:40:41.419Z,19.57
2022-09-04T17:40:56.106Z,19.35
2022-09-04T17:43:22.621Z,19.57
2022-09-04T17:46:14.454Z,20.90
2022-09-04T17:49:36.260Z,23.20
2022-09-04T17:52:48.865Z,23.55
2022-09-04T17:55:58.819Z,26.23
2022-09-04T17:59:24.546Z,31.00
2022-09-04T18:03:02.730Z,31.97
2022-09-04T18:06:28.090Z,32.35
2022-09-04T18:09:43.430Z,33.28
2022-09-04T18:13:36.630Z,32.90
2022-09-04T18:17:11.095Z,29.80
2022-09-04T18:20:19.620Z,30.95
2022-09-04T18:24:07.378Z,28.25
2022-09-04T18:27:26.982Z,27.65
2022-09-04T18:36:50.020Z,29.35
2022-09-04T18:37:23.605Z,27.93
2022-09-04T18:37:45.074Z,27.22
2022-09-04T18:44:41.808Z,25.27
2022-09-04T18:50:30.192Z,24.85
2022-09-04T18:50:43.621Z,25.55
2022-09-04T18:51:38.174Z,24.05
2022-09-04T18:54:59.406Z,23.67
2022-09-04T18:58:11.265Z,24.92
2022-09-04T19:01:28.147Z,23.22
2022-09-04T19:04:55.269Z,24.23
2022-09-04T19:08:13.391Z,24.55
2022-09-04T19:11:28.376Z,24.50
2022-09-04T19:14:42.751Z,23.65
2022-09-04T19:17:51.115Z,22.93
2022-09-04T19:21:14.151Z,24.52
2022-09-04T19:24:46.658Z,26.50
2022-09-04T19:28:07.912Z,26.55
2022-09-04T19:34:55.464Z,26.27
2022-09-04T19:42:02.922Z,29.82
2022-09-04T19:46:03.556Z,33.00
2022-09-04T19:46:26.494Z,35.65
2022-09-04T19:48:16.216Z,37.03
2022-09-04T19:53:29.945Z,39.58
2022-09-04T19:55:23.858Z,42.70
2022-09-04T19:58:25.106Z,46.23
2022-09-04T20:01:35.590Z,43.25
2022-09-04T20:04:55.146Z,44.77
2022-09-04T20:08:18.097Z,43.50
2022-09-04T20:11:41.568Z,45.05
2022-09-04T20:14:57.253Z,43.45
2022-09-04T20:18:24.708Z,43.80
2022-09-04T20:21:44.799Z,42.13
2022-09-04T20:25:07.050Z,38.92
2022-09-04T20:28:36.562Z,34.15
2022-09-04T20:31:56.058Z,34.30
2022-09-04T20:35:33.253Z,28.60
2022-09-04T20:38:55.879Z,30.37
2022-09-04T20:42:08.485Z,24.60
2022-09-04T20:47:14.903Z,20.97
2022-09-04T20:52:53.162Z,23.20
2022-09-04T20:52:56.684Z,21.82
2022-09-04T20:55:18.803Z,23.27
2022-09-04T21:03:14.626Z,25.68
2022-09-04T21:03:20.991Z,23.22
2022-09-04T21:06:09.767Z,19.42
2022-09-04T21:09:39.076Z,18.92
2022-09-04T21:13:12.292Z,18.23
2022-09-04T21:16:08.037Z,16.80
2022-09-04T21:19:54.295Z,16.07
2022-09-04T21:23:23.669Z,13.88
2022-09-04T21:26:41.846Z,12.70
2022-09-04T21:30:05.828Z,9.90
2022-09-04T21:33:35.970Z,9.70
2022-09-04T21:36:56.956Z,9.95
2022-09-04T21:40:51.388Z,9.85
2022-09-04T21:44:24.863Z,10.28
2022-09-04T21:47:45.045Z,10.75
2022-09-04T21:51:15.709Z,9.38
2022-09-04T21:57:51.813Z,9.50
2022-09-04T22:02:36.670Z,8.73
2022-09-04T22:02:49.309Z,10.05
2022-09-04T22:05:38.090Z,7.87
2022-09-04T22:13:27.333Z,8.40
2022-09-04T22:13:38.524Z,8.08
2022-09-04T22:16:19.018Z,7.45
2022-09-04T22:20:10.493Z,7.40
2022-09-04T22:23:39.339Z,6.70
2022-09-04T22:27:26.059Z,6.47
2022-09-04T22:30:33.374Z,7.03
2022-09-04T22:34:15.077Z,7.40
2022-09-04T22:40:55.923Z,6.58
2022-09-04T22:43:46.913Z,6.87
2022-09-04T22:47:16.305Z,7.47
2022-09-04T22:50:49.986Z,6.65
2022-09-04T22:54:16.414Z,6.45
2022-09-04T22:57:45.294Z,7.12
2022-09-04T23:01:19.210Z,6.85
2022-09-04T23:13:42.563Z,5.53
2022-09-04T23:13:49.617Z,6.20
2022-09-04T23:15:46.352Z,5.75
2022-09-04T23:20:39.736Z,5.22
2022-09-04T23:26:49.215Z,5.40
2022-09-04T23:26:58.157Z,5.05
2022-09-04T23:30:02.386Z,4.85
2022-09-04T23:33:31.429Z,5.58
2022-09-04T23:37:16.051Z,5.10
2022-09-04T23:40:51.191Z,4.80
2022-09-04T23:44:32.171Z,4.75
2022-09-04T23:48:20.927Z,4.35
2022-09-04T23:52:01.302Z,4.78
2022-09-04T23:55:36.578Z,5.53
2022-09-04T23:59:35.455Z,5.03
